Airfield :
LOGIN :

Register | Disclaimer

   EN    FR    IT 

 










Legend :    VFR   Marginal VFR   IFR   Intensive IFR   Very Intensive IFR
Visi :
Ceiling :
>= 8 km
>= 3000ft
5 to 8 km
1000 to 3000 ft
1500m to 5 km
500 to 1000 ft
800 to 1500m
200 to 500 ft
< 800m
< 200 ft
Symbols :   Thunderstorms  Fog  Heavy snow  Heavy precipitations  Wind > 20 kt
SIGMETs :     Misc.  Thunderstorms  Icing  Turbulence  Mountain Waves  Volcanic Ashes






- Airport Elevation : 568 ft


UUMO - Ostafyevo International

CURRENT METAR :
  • 250500Z 23002MPS 8000 -SN OVC005 00/00 Q1012 R26/290050 NOSIG RMK QBB170 QFE743/0991

EXPIRED METARs :
  • 250430Z 23002MPS 6000 -SN OVC003 00/00 Q1011 R26/290050 NOSIG RMK QBB100 QFE743/0991
  • 250400Z 23002MPS 5000 -SN OVC003 01/01 Q1011 R26/290050 NOSIG RMK QBB110 QFE743/0991
  • 250330Z 25001MPS 9999 BKN006 01/01 Q1011 R26/290050 NOSIG RMK QBB190 QFE743/0991
  • 250300Z 27002MPS 9999 BKN006 01/01 Q1011 R26/290050 NOSIG RMK QBB200 QFE743/0991
  • 250230Z 27002MPS 9999 BKN007 01/01 Q1011 R26/290050 NOSIG RMK QFE743/0991

TAF TAF UUMO
Valid from the 25 at 03:00 until the 25 at 12:00 UTC


250149Z 2503/2512 30003MPS 9999 BKN008 OVC012
TEMPO 2504/2509 3100 -SN BR BKN004



MET'MAP, your aeronautical weather chart ! - Copyright ORBIFLY December 2007 - Disclaimer

ORBIFLY MET'MAP TEAM :

Programming & Development : Alexandra Zaïnal
Concept & original design : Baudouin d'Aumeries
Assistance for programming : Marc-Olivier Méhu
Technical & hardware support : Manuel Goepfert

Contact : metmap@orbifly.com




SOURCES & CREDITS :

   NOAA